Route Details

Aircraft Information
Group: North America Fleet
Types: B738, B752, B762, B763
Route Data
Distance: 1034nm
Duration: 2h 54m
Origin METAR: KIAH 181653Z VRB05KT 10SM SCT038 SCT200 BKN250 34/23 A2995 RMK AO2 SLP142 T03440233
Dest. METAR: KIAD 181652Z 33004KT 10SM FEW045 27/15 A2999 RMK AO2 SLP151 T02720150
Freight Data
(for Aug 18, 2022)
Load Factor:
27%
Manifested Cargo: 30,519lbs
Financial History
Total Freight: 0lbs
Average Load: 0lbs/flt
Fuel Used: 0lbs
Avg. Fuel Used: 0lbs/flt
Fuel Expense: $0
Avg. Fuel Expense: $0
Avg. Fuel Cost: $0/lbs
Total Gross Income: $0
Pilot Pay: $0
Total Expenses: $0
Total Revenue: $0
Average Revenue: $0

Capitol Logistics 379




KIAH
George Bush Intcntl/Houston Airport
Houston, Texas
KIAD
Washington Dulles International Airport
Dulles, Virginia

Activity Log

Date Flight Route Aircraft Duration
No Flights Yet